Time;durP1;ratioP1;P1;durP2;ratioP2;P2;SDS_P1;SDS_P2;PMS_P1;PMS_P2;Temp;Humidity;BMP_temperature;BMP_pressure;BME280_temperature;BME280_humidity;BME280_pressure;Samples;Min_cycle;Max_cycle;Signal;HPM_P1;HPM_P2
2021/12/03 00:02:15;;;;;;;28.83;18.23;;;-0.50;99.90;;;;;;5007453;28;20034;-74
2021/12/03 00:04:41;;;;;;;27.58;17.55;;;-0.40;99.90;;;;;;4994235;28;20100;-74
2021/12/03 00:07:06;;;;;;;31.73;20.27;;;-0.40;99.90;;;;;;5023884;28;20405;-74
2021/12/03 00:09:35;;;;;;;33.63;21.02;;;-0.40;99.90;;;;;;4993372;28;20053;-74
2021/12/03 00:12:04;;;;;;;32.22;21.05;;;-0.30;99.90;;;;;;5026955;28;20437;-74
2021/12/03 00:14:31;;;;;;;40.40;24.70;;;-0.30;99.90;;;;;;5019403;28;20037;-74
2021/12/03 00:16:57;;;;;;;42.50;25.85;;;-0.40;99.90;;;;;;5021080;28;20054;-74
2021/12/03 00:19:22;;;;;;;45.92;27.00;;;-0.30;99.90;;;;;;4993104;28;20190;-74
2021/12/03 00:21:48;;;;;;;45.00;26.98;;;-0.30;99.90;;;;;;4993391;28;20494;-74
2021/12/03 00:24:13;;;;;;;41.38;26.55;;;-0.40;99.90;;;;;;5009242;28;20042;-74
2021/12/03 00:26:39;;;;;;;49.63;28.88;;;-0.40;99.90;;;;;;4992809;28;20042;-74
2021/12/03 00:29:05;;;;;;;43.50;26.75;;;-0.40;99.90;;;;;;5022645;28;20044;-74
2021/12/03 00:31:30;;;;;;;52.42;30.38;;;-0.40;99.90;;;;;;5022618;28;20124;-74
2021/12/03 00:33:56;;;;;;;54.60;32.30;;;-0.40;99.90;;;;;;4995468;28;20041;-74
2021/12/03 00:36:23;;;;;;;52.25;34.25;;;-0.40;99.90;;;;;;4976813;28;20154;-74
2021/12/03 00:38:51;;;;;;;57.45;36.60;;;-0.40;99.90;;;;;;4993810;28;20384;-74
2021/12/03 00:41:19;;;;;;;64.93;38.55;;;-0.50;99.90;;;;;;4999999;28;20038;-74
2021/12/03 00:43:50;;;;;;;66.55;40.10;;;-0.50;99.90;;;;;;5014732;28;20046;-74
2021/12/03 00:46:18;;;;;;;63.65;39.95;;;-0.50;99.90;;;;;;4992636;28;20510;-74
2021/12/03 00:48:45;;;;;;;74.43;45.22;;;-0.50;99.90;;;;;;4991065;28;20042;-74
2021/12/03 00:51:12;;;;;;;75.65;44.05;;;-0.50;99.90;;;;;;4981215;28;20056;-74
2021/12/03 00:53:38;;;;;;;74.47;47.67;;;-0.50;99.90;;;;;;5026721;28;20109;-74
2021/12/03 00:56:04;;;;;;;84.15;50.20;;;-0.50;99.90;;;;;;5010338;28;20053;-74
2021/12/03 00:58:30;;;;;;;79.32;52.15;;;-0.40;99.90;;;;;;4981020;28;20137;-74
2021/12/03 01:00:55;;;;;;;82.50;53.42;;;-0.40;99.90;;;;;;4992304;28;20129;-74
2021/12/03 01:03:21;;;;;;;84.60;52.85;;;-0.30;99.90;;;;;;4976428;28;20047;-74
2021/12/03 01:05:47;;;;;;;83.40;51.50;;;-0.30;99.90;;;;;;5006811;28;20060;-74
2021/12/03 01:08:13;;;;;;;82.40;52.97;;;-0.30;99.90;;;;;;5004867;28;20117;-74
2021/12/03 01:10:38;;;;;;;87.45;53.53;;;-0.30;99.90;;;;;;5025066;28;20034;-74
2021/12/03 01:13:04;;;;;;;83.45;51.10;;;-0.30;99.90;;;;;;5024723;28;20486;-74
2021/12/03 01:15:33;;;;;;;80.57;49.65;;;-0.30;99.90;;;;;;5011337;28;20053;-74
2021/12/03 01:18:00;;;;;;;83.32;51.63;;;-0.30;99.90;;;;;;5014552;28;20041;-74
2021/12/03 01:20:26;;;;;;;78.68;48.28;;;-0.30;99.90;;;;;;5031205;28;20045;-74
2021/12/03 01:22:53;;;;;;;82.68;48.38;;;-0.30;99.90;;;;;;5003766;28;20479;-74
2021/12/03 01:25:20;;;;;;;80.85;50.30;;;-0.30;99.90;;;;;;4991677;28;20042;-74
2021/12/03 01:27:46;;;;;;;70.63;47.63;;;-0.30;99.90;;;;;;4995451;28;20042;-73
2021/12/03 01:30:15;;;;;;;80.75;47.40;;;-0.30;99.90;;;;;;4992054;28;20050;-74
2021/12/03 01:32:40;;;;;;;74.22;46.75;;;-0.20;99.90;;;;;;5024260;28;20050;-74
2021/12/03 01:35:08;;;;;;;74.03;47.17;;;-0.20;99.90;;;;;;5031036;28;20041;-74
2021/12/03 01:37:33;;;;;;;84.15;48.92;;;-0.20;99.90;;;;;;5008061;28;20132;-74
2021/12/03 01:39:59;;;;;;;70.55;46.50;;;-0.20;99.90;;;;;;4994741;28;20494;-74
2021/12/03 01:42:24;;;;;;;77.72;48.47;;;-0.20;99.90;;;;;;5011164;28;20449;-74
2021/12/03 01:44:50;;;;;;;81.60;47.67;;;-0.20;99.90;;;;;;4994812;28;20406;-74
2021/12/03 01:47:16;;;;;;;81.30;47.22;;;-0.10;99.90;;;;;;4992910;28;20114;-74
2021/12/03 01:49:41;;;;;;;82.30;47.70;;;-0.10;99.90;;;;;;4991701;28;20410;-74
2021/12/03 01:52:07;;;;;;;80.72;48.10;;;-0.10;99.90;;;;;;4991379;28;20038;-74
2021/12/03 01:54:33;;;;;;;87.03;49.30;;;-0.10;99.90;;;;;;4991630;28;20047;-74
2021/12/03 01:56:58;;;;;;;80.10;49.80;;;-0.10;99.90;;;;;;5001081;28;20045;-74
2021/12/03 01:59:24;;;;;;;81.00;48.78;;;-0.10;99.90;;;;;;5030714;28;20072;-74
2021/12/03 02:01:49;;;;;;;84.53;50.13;;;-0.10;99.90;;;;;;5030593;28;20445;-74
2021/12/03 02:04:15;;;;;;;78.25;48.95;;;0.00;99.90;;;;;;5030555;28;20037;-74
2021/12/03 02:06:41;;;;;;;72.53;49.30;;;0.00;99.90;;;;;;5009686;28;20518;-74
2021/12/03 02:09:07;;;;;;;82.55;50.17;;;0.00;99.90;;;;;;5006982;28;20181;-74
2021/12/03 02:11:33;;;;;;;82.47;51.45;;;0.00;99.90;;;;;;5031137;28;20029;-74
2021/12/03 02:13:59;;;;;;;80.63;49.00;;;0.00;99.90;;;;;;5030246;28;20064;-74
2021/12/03 02:16:25;;;;;;;78.57;47.13;;;0.00;99.90;;;;;;5014729;28;20038;-74
2021/12/03 02:18:51;;;;;;;86.32;49.80;;;0.00;99.90;;;;;;4992260;28;20070;-74
2021/12/03 02:21:18;;;;;;;92.50;49.75;;;0.10;99.90;;;;;;5040410;28;20038;-74
2021/12/03 02:23:44;;;;;;;76.53;48.63;;;0.10;99.90;;;;;;5024881;28;20553;-74
2021/12/03 02:26:11;;;;;;;83.90;49.20;;;0.10;99.90;;;;;;5006513;28;20042;-74
2021/12/03 02:28:40;;;;;;;73.93;46.25;;;0.10;99.90;;;;;;4991114;28;20046;-74
2021/12/03 02:31:06;;;;;;;75.65;46.92;;;0.10;99.90;;;;;;4991389;28;20150;-74
2021/12/03 02:33:33;;;;;;;77.35;47.00;;;0.10;99.90;;;;;;4991299;28;20081;-74
2021/12/03 02:35:58;;;;;;;83.03;48.10;;;0.10;99.90;;;;;;5024519;28;20544;-74
2021/12/03 02:38:26;;;;;;;73.10;46.20;;;0.10;99.90;;;;;;5010683;28;20172;-74
2021/12/03 02:40:53;;;;;;;72.93;46.33;;;0.10;99.90;;;;;;4994386;28;20046;-74
2021/12/03 02:43:19;;;;;;;71.55;45.90;;;0.10;99.90;;;;;;5009896;28;20123;-74
2021/12/03 02:45:45;;;;;;;71.22;45.33;;;0.10;99.90;;;;;;4992489;28;20090;-74
2021/12/03 02:48:10;;;;;;;61.33;42.70;;;0.10;99.90;;;;;;5010215;28;20117;-74
2021/12/03 02:50:36;;;;;;;72.55;45.83;;;0.10;99.90;;;;;;5011790;28;20044;-74
2021/12/03 02:53:02;;;;;;;64.00;43.10;;;0.10;99.90;;;;;;5010451;28;20034;-74
2021/12/03 02:55:28;;;;;;;66.05;44.05;;;0.10;99.90;;;;;;5010304;28;20034;-74
2021/12/03 02:57:54;;;;;;;58.78;41.50;;;0.10;99.90;;;;;;5008928;28;20130;-73
2021/12/03 03:00:22;;;;;;;61.80;41.25;;;0.10;99.90;;;;;;5023492;28;20042;-73
2021/12/03 03:02:48;;;;;;;68.68;43.03;;;0.10;99.90;;;;;;5003814;28;20042;-73
2021/12/03 03:05:16;;;;;;;58.80;40.35;;;0.10;99.90;;;;;;5029841;28;20042;-73
2021/12/03 03:07:42;;;;;;;63.63;40.00;;;0.10;99.90;;;;;;5029904;28;20073;-74
2021/12/03 03:10:10;;;;;;;58.15;39.50;;;0.10;99.90;;;;;;5029853;28;20548;-73
2021/12/03 03:12:37;;;;;;;61.35;39.35;;;0.00;99.90;;;;;;5007964;28;20066;-73
2021/12/03 03:15:04;;;;;;;61.38;40.42;;;0.00;99.90;;;;;;4996337;28;20077;-73
2021/12/03 03:17:30;;;;;;;58.35;38.38;;;0.00;99.90;;;;;;5008124;28;20525;-74
2021/12/03 03:19:58;;;;;;;56.35;37.13;;;0.00;99.90;;;;;;5023338;28;20046;-73
2021/12/03 03:22:25;;;;;;;56.33;36.85;;;-0.10;99.90;;;;;;4993654;28;20050;-73
2021/12/03 03:24:51;;;;;;;58.45;39.47;;;-0.10;99.90;;;;;;4977728;28;20502;-73
2021/12/03 03:27:19;;;;;;;53.42;37.50;;;-0.10;99.90;;;;;;5003471;28;20037;-73
2021/12/03 03:29:47;;;;;;;55.47;37.33;;;-0.10;99.90;;;;;;5009876;28;20038;-73
2021/12/03 03:32:14;;;;;;;59.70;38.80;;;-0.10;99.90;;;;;;5013546;28;20073;-73
2021/12/03 03:34:40;;;;;;;59.70;38.28;;;-0.10;99.90;;;;;;5013367;28;20061;-73
2021/12/03 03:37:05;;;;;;;57.72;39.45;;;-0.10;99.90;;;;;;4997022;28;20042;-73
2021/12/03 03:39:31;;;;;;;57.85;38.45;;;-0.10;99.90;;;;;;5011927;28;20402;-73
2021/12/03 03:41:57;;;;;;;54.42;37.67;;;-0.10;99.90;;;;;;4996697;28;20049;-73
2021/12/03 03:44:23;;;;;;;60.38;38.60;;;-0.10;99.90;;;;;;5014802;28;20045;-73
2021/12/03 03:46:51;;;;;;;54.47;38.13;;;-0.10;99.90;;;;;;5016540;28;20517;-73
2021/12/03 03:49:18;;;;;;;56.78;37.58;;;-0.10;99.90;;;;;;5000053;28;20038;-73
2021/12/03 03:51:43;;;;;;;61.00;38.83;;;-0.10;99.90;;;;;;5026507;28;20514;-73
2021/12/03 03:54:09;;;;;;;58.25;38.65;;;-0.10;99.90;;;;;;4993312;28;20088;-73
2021/12/03 03:56:34;;;;;;;54.70;37.50;;;-0.10;99.90;;;;;;5003287;28;20071;-73
2021/12/03 03:59:00;;;;;;;63.33;39.78;;;-0.10;99.90;;;;;;5036372;28;20580;-73
2021/12/03 04:01:26;;;;;;;56.30;38.67;;;-0.20;99.90;;;;;;5019659;28;20115;-73
2021/12/03 04:03:52;;;;;;;51.70;38.75;;;-0.20;99.90;;;;;;5031645;28;20500;-73
2021/12/03 04:06:19;;;;;;;55.47;40.28;;;-0.20;99.90;;;;;;5013130;28;20045;-73
2021/12/03 04:08:46;;;;;;;53.25;37.40;;;-0.20;99.90;;;;;;4999194;28;20125;-73
2021/12/03 04:11:14;;;;;;;60.83;41.72;;;-0.20;99.90;;;;;;5015180;28;20059;-73
2021/12/03 04:13:39;;;;;;;57.30;39.38;;;-0.20;99.90;;;;;;5035579;28;20044;-74
2021/12/03 04:16:05;;;;;;;50.05;38.75;;;-0.20;99.90;;;;;;5001716;28;20095;-73
2021/12/03 04:18:31;;;;;;;56.72;38.65;;;-0.20;99.90;;;;;;4996330;28;20042;-74
2021/12/03 04:20:57;;;;;;;61.75;38.15;;;-0.20;99.90;;;;;;4996379;28;20037;-73
2021/12/03 04:23:23;;;;;;;54.70;38.75;;;-0.30;99.90;;;;;;4996997;28;20088;-73
2021/12/03 04:25:50;;;;;;;58.40;39.33;;;-0.20;99.90;;;;;;4996435;28;20045;-74
2021/12/03 04:28:18;;;;;;;52.63;38.25;;;-0.30;99.90;;;;;;5015595;28;20038;-74
2021/12/03 04:30:45;;;;;;;51.47;37.38;;;-0.30;99.90;;;;;;5014183;28;20034;-74
2021/12/03 04:33:11;;;;;;;54.70;38.35;;;-0.30;99.90;;;;;;5015075;28;20057;-74
2021/12/03 04:35:37;;;;;;;58.72;39.47;;;-0.30;99.90;;;;;;5015999;28;20400;-74
2021/12/03 04:38:04;;;;;;;53.63;38.25;;;-0.30;99.90;;;;;;5013833;28;20049;-74
2021/12/03 04:40:31;;;;;;;58.58;37.13;;;-0.30;99.90;;;;;;5018482;28;20049;-74
2021/12/03 04:42:56;;;;;;;49.70;35.88;;;-0.30;99.90;;;;;;5024555;28;20041;-74
2021/12/03 04:45:24;;;;;;;55.03;34.45;;;-0.30;99.90;;;;;;5015640;28;20501;-74
2021/12/03 04:47:52;;;;;;;49.85;33.70;;;-0.30;99.90;;;;;;5015377;28;20060;-74
2021/12/03 04:50:19;;;;;;;51.00;33.53;;;-0.30;99.90;;;;;;5010873;28;20030;-74
2021/12/03 04:52:46;;;;;;;54.67;33.45;;;-0.30;99.90;;;;;;5012261;28;20120;-74
2021/12/03 04:55:12;;;;;;;47.30;32.03;;;-0.30;99.90;;;;;;5019987;28;20040;-74
2021/12/03 04:57:39;;;;;;;49.25;33.00;;;-0.30;99.90;;;;;;5035073;28;20053;-74
2021/12/03 05:00:09;;;;;;;55.58;34.00;;;-0.30;99.90;;;;;;5034936;28;20093;-74
2021/12/03 05:02:35;;;;;;;47.53;32.38;;;-0.20;99.90;;;;;;5026103;28;20041;-74
2021/12/03 05:05:04;;;;;;;54.20;33.78;;;-0.20;99.90;;;;;;5015018;28;20540;-74
2021/12/03 05:10:05;;;;;;;60.22;35.13;;;-0.10;99.90;;;;;;5034882;28;20429;-74
2021/12/03 05:12:30;;;;;;;55.17;33.35;;;0.00;99.90;;;;;;5012534;28;20037;-75
2021/12/03 05:14:56;;;;;;;54.20;33.15;;;0.00;99.90;;;;;;4998606;28;20043;-74
2021/12/03 05:17:21;;;;;;;55.35;33.45;;;0.10;99.90;;;;;;5014573;28;20418;-74
2021/12/03 05:19:47;;;;;;;51.15;33.17;;;0.10;99.90;;;;;;5034674;28;20523;-73
2021/12/03 05:22:13;;;;;;;57.03;33.35;;;0.20;99.90;;;;;;5034785;28;20523;-73
2021/12/03 05:24:45;;;;;;;55.60;33.60;;;0.20;99.90;;;;;;5029582;28;20048;-73
2021/12/03 05:27:11;;;;;;;54.70;32.75;;;0.20;99.90;;;;;;5013609;28;20513;-74
2021/12/03 05:29:36;;;;;;;52.95;31.70;;;0.20;99.90;;;;;;5011367;28;20045;-74
2021/12/03 05:32:02;;;;;;;49.83;30.80;;;0.20;99.90;;;;;;4997664;28;20054;-73
2021/12/03 05:34:29;;;;;;;53.78;30.85;;;0.30;99.90;;;;;;4998998;28;20127;-74
2021/12/03 05:36:54;;;;;;;50.33;29.70;;;0.20;99.90;;;;;;5014316;28;20049;-74
2021/12/03 05:39:20;;;;;;;55.33;30.90;;;0.20;99.90;;;;;;5014808;28;20084;-73
2021/12/03 05:41:45;;;;;;;49.42;30.67;;;0.20;99.90;;;;;;5014525;28;20061;-73
2021/12/03 05:44:12;;;;;;;52.13;30.63;;;0.30;99.90;;;;;;5004737;28;20037;-73
2021/12/03 05:46:37;;;;;;;52.13;30.08;;;0.30;99.90;;;;;;4999737;28;20498;-74
2021/12/03 05:49:03;;;;;;;51.42;29.92;;;0.30;99.90;;;;;;5000345;28;20048;-74
2021/12/03 05:51:29;;;;;;;51.70;28.42;;;0.30;99.90;;;;;;4995955;28;20057;-73
2021/12/03 05:53:55;;;;;;;46.80;28.65;;;0.30;99.90;;;;;;5047164;28;20052;-74
2021/12/03 05:56:21;;;;;;;47.03;28.67;;;0.30;99.90;;;;;;5022055;28;20030;-73
2021/12/03 05:58:48;;;;;;;44.92;27.15;;;0.40;99.90;;;;;;4994511;28;20094;-73
2021/12/03 06:01:14;;;;;;;51.65;28.80;;;0.40;99.90;;;;;;4994588;28;20056;-73
2021/12/03 06:03:39;;;;;;;43.53;25.55;;;0.40;99.90;;;;;;4995835;28;20037;-73
2021/12/03 06:06:05;;;;;;;43.60;26.15;;;0.40;99.90;;;;;;4997731;28;20132;-73
2021/12/03 06:08:30;;;;;;;52.38;27.60;;;0.40;99.90;;;;;;4994634;28;20038;-74
2021/12/03 06:10:56;;;;;;;40.95;26.13;;;0.50;99.90;;;;;;4978772;28;20041;-74
2021/12/03 06:13:22;;;;;;;41.70;26.05;;;0.50;99.90;;;;;;5021982;28;20030;-73
2021/12/03 06:15:47;;;;;;;45.20;26.25;;;0.50;99.90;;;;;;4994400;28;20042;-73
2021/12/03 06:18:13;;;;;;;49.25;25.95;;;0.50;99.90;;;;;;5012245;28;20048;-73
2021/12/03 06:20:39;;;;;;;41.53;25.58;;;0.50;99.90;;;;;;5015641;28;20409;-73
2021/12/03 06:23:04;;;;;;;43.60;24.98;;;0.50;99.90;;;;;;5033661;28;20067;-74
2021/12/03 06:25:30;;;;;;;47.08;25.75;;;0.50;99.90;;;;;;5003236;28;20038;-73
2021/12/03 06:27:58;;;;;;;39.78;24.77;;;0.50;99.90;;;;;;4998037;28;20040;-74
2021/12/03 06:30:25;;;;;;;45.78;24.10;;;0.60;99.90;;;;;;4997704;28;20080;-76
2021/12/03 06:32:52;;;;;;;47.47;23.75;;;0.60;99.90;;;;;;5010991;28;20465;-75
2021/12/03 06:35:18;;;;;;;40.63;22.60;;;0.60;99.90;;;;;;5012890;28;20037;-75
2021/12/03 06:37:45;;;;;;;43.45;23.70;;;0.70;99.90;;;;;;5013316;28;20053;-74
2021/12/03 06:40:15;;;;;;;48.80;23.30;;;0.70;99.90;;;;;;5003859;28;20038;-77
2021/12/03 06:42:40;;;;;;;44.58;23.15;;;0.70;99.90;;;;;;5018080;28;20049;-77
2021/12/03 06:45:07;;;;;;;47.83;23.42;;;0.80;99.90;;;;;;4996129;28;20490;-74
2021/12/03 06:47:34;;;;;;;54.75;24.10;;;0.80;99.90;;;;;;4994014;28;20048;-75
2021/12/03 06:50:02;;;;;;;48.95;23.38;;;0.90;99.90;;;;;;5016441;28;20041;-77
2021/12/03 06:52:28;;;;;;;48.30;23.58;;;1.00;99.90;;;;;;5006233;28;20030;-76
2021/12/03 06:54:59;;;;;;;49.72;23.15;;;1.00;99.90;;;;;;4995122;28;20034;-75
2021/12/03 06:57:25;;;;;;;51.22;23.45;;;1.00;99.90;;;;;;4997448;28;20038;-74
2021/12/03 06:59:50;;;;;;;57.95;23.50;;;1.10;99.90;;;;;;5015805;28;20482;-75
2021/12/03 07:02:16;;;;;;;51.55;23.20;;;1.00;99.90;;;;;;5017475;28;20371;-74
2021/12/03 07:04:43;;;;;;;45.65;22.88;;;1.10;99.90;;;;;;5017533;28;20122;-75
2021/12/03 07:07:09;;;;;;;60.47;23.02;;;1.10;99.90;;;;;;5016714;28;20053;-75
2021/12/03 07:09:35;;;;;;;58.60;22.38;;;1.10;99.90;;;;;;5017379;28;20045;-75
2021/12/03 07:12:01;;;;;;;45.25;20.73;;;1.10;99.90;;;;;;5001033;28;20163;-74
2021/12/03 07:14:26;;;;;;;53.45;21.08;;;1.10;99.90;;;;;;5017052;28;20091;-74
2021/12/03 07:16:52;;;;;;;42.70;20.10;;;1.20;99.90;;;;;;5000858;28;20045;-75
2021/12/03 07:19:17;;;;;;;46.00;20.20;;;1.20;99.90;;;;;;5017570;28;20383;-75
2021/12/03 07:21:43;;;;;;;39.25;19.00;;;1.20;99.90;;;;;;5036945;28;20059;-75
2021/12/03 07:24:08;;;;;;;45.72;18.48;;;1.20;99.90;;;;;;5003585;28;20041;-74
2021/12/03 07:26:34;;;;;;;41.42;18.27;;;1.20;99.90;;;;;;4981110;28;20433;-73
2021/12/03 07:29:00;;;;;;;46.70;18.88;;;1.10;99.90;;;;;;4997628;28;20045;-73
2021/12/03 07:31:26;;;;;;;44.70;18.67;;;1.10;99.90;;;;;;5023829;28;20042;-73
2021/12/03 07:33:53;;;;;;;48.90;19.13;;;1.10;99.90;;;;;;5002042;28;20073;-75
2021/12/03 07:36:19;;;;;;;48.58;18.83;;;1.10;99.90;;;;;;5011932;28;20056;-75
2021/12/03 07:38:45;;;;;;;46.20;19.80;;;1.20;99.90;;;;;;5004566;28;20493;-75
2021/12/03 07:41:10;;;;;;;48.13;20.70;;;1.20;99.90;;;;;;5000846;28;20132;-76
2021/12/03 07:43:36;;;;;;;58.85;22.60;;;1.30;99.90;;;;;;5016539;28;20049;-76
2021/12/03 07:46:02;;;;;;;56.20;23.52;;;1.30;99.90;;;;;;5000321;28;20045;-75
2021/12/03 07:48:28;;;;;;;52.17;24.42;;;1.40;99.90;;;;;;5018081;28;20033;-75
2021/12/03 07:50:56;;;;;;;63.35;25.77;;;1.40;99.90;;;;;;5036325;28;20094;-75
2021/12/03 07:53:22;;;;;;;58.83;27.23;;;1.50;99.90;;;;;;5025878;28;20044;-77
2021/12/03 07:55:49;;;;;;;59.47;27.02;;;1.50;99.90;;;;;;5002121;28;20042;-77
2021/12/03 07:58:15;;;;;;;68.07;29.17;;;1.50;99.90;;;;;;4996868;28;20046;-75
2021/12/03 08:00:43;;;;;;;76.57;32.15;;;1.50;99.90;;;;;;4980003;28;20136;-75
2021/12/03 08:03:09;;;;;;;69.68;32.30;;;1.50;99.90;;;;;;4992689;28;20032;-76
2021/12/03 08:05:34;;;;;;;79.22;33.85;;;1.50;99.90;;;;;;5035063;28;20557;-76
2021/12/03 08:08:00;;;;;;;72.00;34.15;;;1.60;99.90;;;;;;5025689;28;20044;-75
2021/12/03 08:10:27;;;;;;;77.20;34.70;;;1.60;99.90;;;;;;5016305;28;20033;-75
2021/12/03 08:12:52;;;;;;;77.88;34.80;;;1.60;99.90;;;;;;5016000;28;20037;-75
2021/12/03 08:15:18;;;;;;;69.43;35.25;;;1.60;99.90;;;;;;5016083;28;20037;-75
2021/12/03 08:17:47;;;;;;;76.85;36.33;;;1.60;99.90;;;;;;5026965;28;20049;-75
2021/12/03 08:20:13;;;;;;;68.70;35.20;;;1.60;99.90;;;;;;5036083;28;20128;-76
2021/12/03 08:22:39;;;;;;;76.70;35.58;;;1.60;99.90;;;;;;5033902;28;20128;-75
2021/12/03 08:25:05;;;;;;;81.63;36.97;;;1.60;99.90;;;;;;5035951;28;20427;-75
2021/12/03 08:27:31;;;;;;;71.68;36.45;;;1.60;99.90;;;;;;5035641;28;20036;-76
2021/12/03 08:29:56;;;;;;;74.50;36.95;;;1.70;99.90;;;;;;5035574;28;20456;-75
2021/12/03 08:32:22;;;;;;;86.88;37.10;;;1.70;99.90;;;;;;5029907;28;20489;-75
2021/12/03 08:34:48;;;;;;;72.90;36.78;;;1.70;99.90;;;;;;5003665;28;20059;-75
2021/12/03 08:37:13;;;;;;;70.63;36.53;;;1.70;99.90;;;;;;5035471;28;20040;-76
2021/12/03 08:39:39;;;;;;;68.22;35.08;;;1.80;99.90;;;;;;5035504;28;20513;-75
2021/12/03 08:42:07;;;;;;;67.88;35.38;;;1.80;99.90;;;;;;5032511;28;20037;-75
2021/12/03 08:44:32;;;;;;;66.88;35.45;;;1.80;99.90;;;;;;5010239;28;20045;-76
2021/12/03 08:47:02;;;;;;;68.15;34.47;;;1.90;99.90;;;;;;4990772;28;20041;-76
2021/12/03 08:49:37;;;;;;;71.70;35.55;;;1.90;99.90;;;;;;5000395;28;20037;-75
2021/12/03 08:57:35;;;;;;;62.38;33.38;;;2.10;99.90;;;;;;5016560;28;20099;-76
2021/12/03 09:00:19;;;;;;;59.25;32.50;;;2.10;99.90;;;;;;5018170;28;20131;-75
2021/12/03 09:02:45;;;;;;;61.53;31.55;;;2.20;99.90;;;;;;5110727;22;20171;-77
2021/12/03 09:05:19;;;;;;;63.55;31.90;;;2.20;99.90;;;;;;5015307;28;20099;-79
2021/12/03 09:07:49;;;;;;;58.22;31.02;;;2.30;99.90;;;;;;5003502;28;20125;-79
2021/12/03 09:10:44;;;;;;;50.08;30.75;;;2.30;99.90;;;;;;4997646;28;20038;-79
2021/12/03 09:13:20;;;;;;;49.20;27.50;;;2.40;99.90;;;;;;5013423;28;20045;-79
2021/12/03 09:16:09;;;;;;;;;;;;;;;;;;;;;
2021/12/03 09:18:52;;;;;;;46.85;26.85;;;2.50;99.90;;;;;;5032465;28;20056;-79
2021/12/03 09:21:30;;;;;;;44.30;25.52;;;2.50;99.90;;;;;;5017732;28;20109;-78
2021/12/03 09:26:43;;;;;;;43.10;24.60;;;2.60;99.90;;;;;;5033346;28;20045;-79
2021/12/03 09:29:30;;;;;;;42.53;22.95;;;2.70;99.90;;;;;;5016884;28;20555;-79
2021/12/03 09:36:03;;;;;;;35.67;19.70;;;2.90;99.90;;;;;;5038199;28;20052;-77
2021/12/03 09:39:40;;;;;;;29.02;15.40;;;2.90;99.90;;;;;;5027813;28;20110;-79
2021/12/03 10:53:38;;;;;;;17.38;7.22;;;3.40;99.90;;;;;;6080770;22;20023;-77
2021/12/03 11:03:36;;;;;;;21.13;7.85;;;3.40;99.90;;;;;;5052691;28;20505;-79
2021/12/03 12:36:43;;;;;;;13.20;8.48;;;3.00;99.90;;;;;;5043747;28;20059;-78
2021/12/03 13:09:41;;;;;;;15.98;8.65;;;3.40;99.90;;;;;;5038974;28;20045;-76
2021/12/03 14:05:50;;;;;;;11.55;8.45;;;3.70;99.90;;;;;;5053789;28;20048;-82
2021/12/03 14:11:45;;;;;;;14.13;8.63;;;3.70;99.90;;;;;;5057900;28;20078;-80
2021/12/03 14:24:02;;;;;;;12.85;8.98;;;3.80;99.90;;;;;;5051729;28;20044;-79
2021/12/03 14:41:43;;;;;;;12.93;7.75;;;3.80;99.90;;;;;;5053493;28;20607;-77
2021/12/03 14:49:13;;;;;;;13.25;8.32;;;3.90;99.90;;;;;;5053559;28;20044;-78
2021/12/03 14:57:36;;;;;;;11.52;7.78;;;3.90;99.90;;;;;;5070682;28;20498;-78
2021/12/03 15:00:18;;;;;;;11.70;7.65;;;3.90;99.90;;;;;;5062175;28;20558;-78
2021/12/03 15:06:27;;;;;;;11.25;8.50;;;3.90;99.90;;;;;;5052928;28;20048;-77
2021/12/03 15:08:26;;;;;;;12.50;8.07;;;3.90;99.90;;;;;;5040448;28;20040;-78
2021/12/03 15:13:43;;;;;;;10.60;7.77;;;3.90;99.90;;;;;;5053637;28;20051;-78
2021/12/03 15:21:27;;;;;;;11.60;8.70;;;3.90;99.90;;;;;;5054443;28;20060;-82
2021/12/03 15:26:56;;;;;;;12.40;8.50;;;3.90;99.90;;;;;;5056076;28;20474;-77
2021/12/03 15:29:49;;;;;;;13.05;8.63;;;3.90;99.90;;;;;;5053518;28;20511;-77
2021/12/03 15:32:18;;;;;;;14.05;8.90;;;3.90;99.90;;;;;;5037080;28;20136;-78
2021/12/03 15:37:32;;;;;;;13.35;8.82;;;3.90;99.90;;;;;;5067950;28;20072;-78
2021/12/03 16:09:55;;;;;;;14.27;10.75;;;4.00;99.90;;;;;;5065486;28;20074;-77
2021/12/03 16:12:30;;;;;;;13.60;10.98;;;4.00;99.90;;;;;;5036695;28;20488;-77
2021/12/03 16:15:20;;;;;;;12.98;11.65;;;4.00;99.90;;;;;;5043647;28;20493;-77
2021/12/03 16:21:00;;;;;;;13.15;11.43;;;4.00;99.90;;;;;;5036927;28;20070;-77
2021/12/03 16:23:46;;;;;;;16.75;12.50;;;4.00;99.90;;;;;;5034004;28;20024;-78
2021/12/03 16:26:29;;;;;;;15.50;12.40;;;4.00;99.90;;;;;;5075867;28;20071;-78
2021/12/03 16:45:38;;;;;;;16.17;14.50;;;4.00;99.90;;;;;;5052887;28;20047;-78
2021/12/03 16:51:24;;;;;;;16.65;14.57;;;4.00;99.90;;;;;;5075243;28;20118;-75
2021/12/03 16:53:38;;;;;;;17.38;14.90;;;4.00;99.90;;;;;;5062791;28;20063;-76
2021/12/03 16:56:09;;;;;;;17.08;15.25;;;4.10;99.90;;;;;;5053031;28;20056;-77
2021/12/03 16:58:36;;;;;;;17.08;15.27;;;4.10;99.90;;;;;;5058959;28;20097;-75
2021/12/03 17:01:07;;;;;;;19.75;15.98;;;4.10;99.90;;;;;;5063412;28;20044;-77
2021/12/03 17:03:45;;;;;;;17.45;15.55;;;4.10;99.90;;;;;;5040631;28;20035;-76
2021/12/03 17:28:36;;;;;;;20.30;18.15;;;4.20;99.90;;;;;;5042054;28;20052;-76
2021/12/03 17:30:27;;;;;;;21.08;18.65;;;4.20;99.90;;;;;;5053779;28;20497;-76
2021/12/03 17:57:12;;;;;;;30.65;23.27;;;4.10;99.90;;;;;;5058887;28;20044;-78
2021/12/03 17:59:41;;;;;;;29.42;22.77;;;4.10;99.90;;;;;;5052867;28;20044;-77
2021/12/03 18:10:24;;;;;;;31.60;24.15;;;4.10;99.90;;;;;;5049717;28;20044;-76
2021/12/03 18:46:07;;;;;;;37.15;25.60;;;4.10;99.90;;;;;;5048823;28;20102;-75
2021/12/03 18:51:22;;;;;;;37.42;24.80;;;4.10;99.90;;;;;;5059961;28;20098;-75
2021/12/03 18:56:18;;;;;;;36.95;25.10;;;4.10;99.90;;;;;;5053413;28;20048;-75
2021/12/03 18:58:51;;;;;;;37.05;24.83;;;4.10;99.90;;;;;;5047424;28;20126;-74
2021/12/03 19:01:16;;;;;;;39.80;25.73;;;4.10;99.90;;;;;;5049619;28;20037;-75
2021/12/03 19:06:34;;;;;;;36.13;24.55;;;4.10;99.90;;;;;;5065813;28;20050;-75
2021/12/03 19:09:13;;;;;;;34.13;24.42;;;4.20;99.90;;;;;;5060279;28;20110;-76
2021/12/03 19:11:54;;;;;;;35.05;24.58;;;4.20;99.90;;;;;;5064149;28;20123;-76
2021/12/03 19:14:21;;;;;;;36.60;24.55;;;4.20;99.90;;;;;;5036079;28;20041;-76
2021/12/03 19:16:47;;;;;;;33.70;23.45;;;4.20;99.90;;;;;;5069125;28;20074;-76
2021/12/03 19:19:15;;;;;;;36.90;24.17;;;4.20;99.90;;;;;;5076092;28;20068;-76
2021/12/03 19:21:43;;;;;;;35.22;23.83;;;4.20;99.90;;;;;;5039231;28;20039;-76
2021/12/03 19:24:11;;;;;;;34.72;23.83;;;4.20;99.90;;;;;;5054043;28;20123;-75
2021/12/03 19:26:45;;;;;;;40.35;24.40;;;4.20;99.90;;;;;;5046597;28;20082;-75
2021/12/03 19:29:16;;;;;;;37.05;22.98;;;4.20;99.90;;;;;;5043683;28;20111;-74
2021/12/03 19:31:42;;;;;;;41.28;24.40;;;4.20;99.90;;;;;;5043563;28;20064;-74
2021/12/03 19:34:09;;;;;;;39.80;24.23;;;4.20;99.90;;;;;;5039018;28;20048;-74
2021/12/03 19:36:40;;;;;;;39.10;24.27;;;4.20;99.90;;;;;;5046058;28;20136;-76
2021/12/03 19:39:08;;;;;;;38.53;24.17;;;4.20;99.90;;;;;;5053059;28;21465;-74
2021/12/03 19:44:09;;;;;;;40.38;24.02;;;4.20;99.90;;;;;;5040201;28;20114;-74
2021/12/03 19:46:38;;;;;;;35.80;23.75;;;4.20;99.90;;;;;;5040109;28;20577;-74
2021/12/03 19:49:13;;;;;;;39.08;24.27;;;4.20;99.90;;;;;;5036266;28;20052;-75
2021/12/03 19:51:48;;;;;;;37.92;23.90;;;4.20;99.90;;;;;;5039974;28;21021;-75
2021/12/03 19:54:15;;;;;;;40.83;24.15;;;4.20;99.90;;;;;;5029554;28;20056;-75
2021/12/03 19:56:41;;;;;;;37.88;24.48;;;4.20;99.90;;;;;;5026259;28;20032;-75
2021/12/03 19:59:07;;;;;;;39.95;24.85;;;4.20;99.90;;;;;;5036827;28;20557;-73
2021/12/03 20:01:35;;;;;;;41.22;24.80;;;4.20;99.90;;;;;;5044885;28;20037;-75
2021/12/03 20:04:02;;;;;;;39.03;24.20;;;4.20;99.90;;;;;;5038410;28;20094;-74
2021/12/03 20:06:28;;;;;;;42.03;25.17;;;4.30;99.90;;;;;;5039587;28;20044;-74
2021/12/03 20:08:56;;;;;;;38.38;25.10;;;4.20;99.90;;;;;;5046674;28;20044;-77
2021/12/03 20:11:29;;;;;;;39.13;23.95;;;4.20;99.90;;;;;;5037092;28;20119;-74
2021/12/03 20:14:00;;;;;;;43.08;24.63;;;4.30;99.90;;;;;;5026900;28;20040;-80
2021/12/03 20:16:34;;;;;;;42.65;24.67;;;4.30;99.90;;;;;;5032417;28;20032;-75
2021/12/03 20:22:09;;;;;;;40.33;24.17;;;4.30;99.90;;;;;;5013814;28;20465;-76
2021/12/03 20:27:14;;;;;;;41.50;24.33;;;4.30;99.90;;;;;;5035689;28;20072;-76
2021/12/03 20:29:52;;;;;;;42.42;24.73;;;4.30;99.90;;;;;;5020053;28;20091;-76
2021/12/03 20:35:06;;;;;;;40.58;23.90;;;4.30;99.90;;;;;;5035928;28;20068;-75
2021/12/03 20:37:51;;;;;;;37.95;23.13;;;4.30;99.90;;;;;;5024304;28;20029;-76
2021/12/03 20:40:24;;;;;;;40.92;23.73;;;4.30;99.90;;;;;;5018417;28;20048;-74
2021/12/03 20:53:36;;;;;;;43.05;23.20;;;4.30;99.90;;;;;;5042715;28;20506;-75
2021/12/03 21:09:31;;;;;;;40.63;22.20;;;4.30;99.90;;;;;;5030952;28;20048;-75